createdAt,value
2018-03-26T00:00:46.941Z,72.71
2018-03-26T00:01:53.129Z,72.69
2018-03-26T00:02:59.340Z,72.68
2018-03-26T00:04:05.245Z,72.70
2018-03-26T00:05:11.670Z,72.61
2018-03-26T00:06:17.885Z,72.51
2018-03-26T00:07:24.083Z,72.54
2018-03-26T00:08:30.422Z,72.48
2018-03-26T00:09:36.799Z,72.15
2018-03-26T00:10:43.035Z,72.21
2018-03-26T00:11:50.783Z,72.05
2018-03-26T00:12:56.987Z,72.22
2018-03-26T00:14:03.585Z,71.83
2018-03-26T00:15:09.788Z,71.52
2018-03-26T00:16:16.045Z,71.44
2018-03-26T00:17:22.286Z,71.31
2018-03-26T00:18:28.499Z,71.00
2018-03-26T00:19:34.689Z,70.93
2018-03-26T00:20:42.062Z,70.86
2018-03-26T00:21:48.293Z,70.94
2018-03-26T00:22:54.742Z,71.11
2018-03-26T00:24:05.746Z,71.18
2018-03-26T00:25:11.986Z,71.22
2018-03-26T00:26:18.341Z,71.17
2018-03-26T00:27:24.808Z,70.92
2018-03-26T00:28:31.032Z,71.10
2018-03-26T00:29:36.946Z,71.00
2018-03-26T00:30:43.063Z,70.91
2018-03-26T00:31:49.275Z,71.13
2018-03-26T00:32:55.252Z,71.23
2018-03-26T00:34:01.476Z,71.13
2018-03-26T00:35:07.992Z,71.28
2018-03-26T00:36:14.298Z,71.11
2018-03-26T00:37:20.693Z,71.05
2018-03-26T00:38:26.878Z,71.48
2018-03-26T00:39:36.293Z,71.58
2018-03-26T00:40:42.764Z,71.46
2018-03-26T00:41:48.994Z,71.12
2018-03-26T00:42:55.242Z,71.34
2018-03-26T00:44:04.480Z,71.64
2018-03-26T00:45:10.791Z,71.71
2018-03-26T00:46:17.079Z,71.77
2018-03-26T00:47:23.237Z,71.69
2018-03-26T00:48:29.443Z,71.58
2018-03-26T00:49:35.729Z,71.43
2018-03-26T00:50:42.267Z,71.18
2018-03-26T00:51:54.444Z,71.32
2018-03-26T00:53:01.493Z,71.39
2018-03-26T00:54:07.641Z,71.38
2018-03-26T00:55:14.742Z,71.46
2018-03-26T00:56:21.782Z,71.37
2018-03-26T00:57:28.209Z,70.90
2018-03-26T00:58:34.685Z,70.84
2018-03-26T00:59:40.862Z,70.83
2018-03-26T01:00:47.099Z,70.69
2018-03-26T01:01:52.984Z,70.80
2018-03-26T01:02:59.007Z,71.00
2018-03-26T01:04:04.927Z,71.13
2018-03-26T01:05:14.788Z,71.39
2018-03-26T01:06:22.924Z,71.65
2018-03-26T01:07:29.278Z,71.51
2018-03-26T01:08:35.447Z,71.58
2018-03-26T01:09:41.636Z,71.73
2018-03-26T01:10:47.884Z,71.56
2018-03-26T01:11:54.157Z,71.51
2018-03-26T01:13:00.585Z,71.53
2018-03-26T01:14:06.726Z,71.57
2018-03-26T01:15:12.577Z,71.65
2018-03-26T01:16:18.809Z,71.74
2018-03-26T01:17:25.551Z,71.51
2018-03-26T01:18:31.945Z,71.44
2018-03-26T01:19:38.404Z,71.41
2018-03-26T01:20:44.561Z,71.41
2018-03-26T01:21:50.812Z,71.40
2018-03-26T01:22:57.034Z,71.25
2018-03-26T01:24:03.268Z,71.26
2018-03-26T01:25:09.454Z,70.99
2018-03-26T01:26:15.738Z,70.89
2018-03-26T01:27:22.026Z,71.07
2018-03-26T01:28:28.228Z,71.10
2018-03-26T01:29:34.692Z,71.27
2018-03-26T01:30:40.909Z,71.47
2018-03-26T01:31:47.144Z,71.48
2018-03-26T01:32:53.314Z,71.54
2018-03-26T01:33:59.510Z,71.46
2018-03-26T01:35:05.592Z,71.46
2018-03-26T01:36:12.012Z,71.46
2018-03-26T01:37:18.243Z,71.42
2018-03-26T01:38:24.490Z,71.64
2018-03-26T01:39:30.717Z,71.73
2018-03-26T01:40:37.248Z,71.52
2018-03-26T01:41:43.556Z,71.60
2018-03-26T01:42:49.883Z,71.65
2018-03-26T01:43:55.784Z,71.79
2018-03-26T01:45:02.005Z,71.79
2018-03-26T01:46:08.258Z,71.90
2018-03-26T01:47:14.521Z,71.95
2018-03-26T01:48:21.139Z,72.09
2018-03-26T01:49:27.384Z,71.81
2018-03-26T01:50:33.400Z,71.58
2018-03-26T01:51:39.917Z,71.59
2018-03-26T01:52:50.808Z,71.38
2018-03-26T01:53:57.052Z,71.36
2018-03-26T01:55:03.288Z,71.21
2018-03-26T01:56:09.543Z,71.49
2018-03-26T01:57:15.697Z,71.46
2018-03-26T01:58:21.876Z,71.32
2018-03-26T01:59:28.803Z,71.26
2018-03-26T02:00:35.882Z,71.41
2018-03-26T02:01:41.723Z,71.26
2018-03-26T02:02:48.045Z,71.28
2018-03-26T02:03:54.228Z,71.38
2018-03-26T02:05:00.386Z,71.60
2018-03-26T02:06:06.636Z,71.83
2018-03-26T02:07:12.893Z,71.97
2018-03-26T02:08:18.802Z,71.83
2018-03-26T02:09:30.213Z,71.86
2018-03-26T02:10:36.181Z,71.82
2018-03-26T02:11:46.338Z,71.99
2018-03-26T02:12:53.107Z,71.88
2018-03-26T02:13:59.388Z,71.81
2018-03-26T02:15:05.568Z,71.84
2018-03-26T02:16:11.805Z,71.76
2018-03-26T02:17:17.996Z,71.65
2018-03-26T02:18:24.247Z,71.69
2018-03-26T02:19:30.521Z,71.80
2018-03-26T02:20:36.803Z,71.91
2018-03-26T02:21:42.982Z,71.95
2018-03-26T02:22:49.183Z,71.97
2018-03-26T02:23:55.393Z,71.92
2018-03-26T02:25:01.592Z,72.12
2018-03-26T02:26:09.121Z,71.99
2018-03-26T02:27:15.396Z,71.91
2018-03-26T02:28:21.625Z,71.87
2018-03-26T02:29:27.815Z,71.82
2018-03-26T02:30:34.088Z,71.99
2018-03-26T02:31:40.342Z,71.95
2018-03-26T02:32:46.564Z,71.83
2018-03-26T02:33:52.773Z,71.97
2018-03-26T02:34:58.939Z,71.96
2018-03-26T02:36:04.804Z,71.93
2018-03-26T02:37:10.379Z,72.01
2018-03-26T02:38:19.421Z,71.96
2018-03-26T02:39:25.645Z,71.84
2018-03-26T02:40:31.998Z,71.67
2018-03-26T02:41:39.981Z,71.56
2018-03-26T02:42:49.833Z,71.37
2018-03-26T02:43:56.034Z,71.38
2018-03-26T02:45:02.101Z,71.64
2018-03-26T02:46:08.320Z,71.74
2018-03-26T02:47:14.538Z,71.70
2018-03-26T02:48:20.733Z,71.77
2018-03-26T02:49:26.946Z,71.76
2018-03-26T02:50:36.016Z,71.66
2018-03-26T02:51:42.269Z,71.61
2018-03-26T02:52:48.471Z,71.43
2018-03-26T02:53:54.733Z,71.36
2018-03-26T02:55:00.948Z,71.33
2018-03-26T02:56:07.094Z,71.23
2018-03-26T02:57:13.213Z,70.99
2018-03-26T02:58:19.441Z,71.04
2018-03-26T02:59:25.740Z,70.74
2018-03-26T03:00:32.131Z,70.76
2018-03-26T03:01:46.623Z,70.91
2018-03-26T03:04:10.095Z,70.98
2018-03-26T03:05:16.469Z,71.06
2018-03-26T03:06:22.721Z,71.17
2018-03-26T03:07:28.924Z,71.34
2018-03-26T03:08:35.149Z,71.36
2018-03-26T03:09:43.330Z,71.33
2018-03-26T03:10:49.540Z,71.49
2018-03-26T03:11:55.396Z,71.51
2018-03-26T03:13:01.606Z,71.98
2018-03-26T03:14:15.329Z,72.62
2018-03-26T03:15:21.541Z,72.93
2018-03-26T03:16:30.816Z,72.87
2018-03-26T03:17:36.708Z,72.84
2018-03-26T03:18:42.671Z,72.20
2018-03-26T03:19:49.035Z,72.25
2018-03-26T03:20:55.396Z,72.01
2018-03-26T03:22:01.635Z,72.30
2018-03-26T03:23:13.150Z,72.14
2018-03-26T03:24:19.292Z,72.28
2018-03-26T03:25:25.478Z,72.53
2018-03-26T03:26:31.657Z,73.06
2018-03-26T03:27:38.685Z,73.17
2018-03-26T03:28:44.980Z,73.06
2018-03-26T03:29:51.327Z,72.59
2018-03-26T03:30:57.599Z,72.12
2018-03-26T03:32:03.580Z,71.66
2018-03-26T03:33:10.372Z,71.77
2018-03-26T03:34:16.648Z,71.81
2018-03-26T03:35:28.296Z,71.70
2018-03-26T03:36:36.415Z,71.70
2018-03-26T03:37:42.779Z,71.74
2018-03-26T03:38:48.973Z,72.21
2018-03-26T03:39:54.924Z,71.76
2018-03-26T03:41:01.258Z,71.56
2018-03-26T03:42:07.424Z,71.85
2018-03-26T03:43:13.628Z,72.00
2018-03-26T03:44:19.879Z,72.30
2018-03-26T03:45:29.205Z,72.12
2018-03-26T03:46:37.406Z,72.02
2018-03-26T03:47:43.666Z,71.91
2018-03-26T03:48:49.891Z,71.69
2018-03-26T03:49:56.093Z,71.46
2018-03-26T03:51:02.284Z,71.75
2018-03-26T03:52:08.523Z,71.61
2018-03-26T03:53:14.752Z,71.69
2018-03-26T03:54:20.754Z,71.74
2018-03-26T03:55:28.932Z,71.70
2018-03-26T03:56:35.168Z,71.70
2018-03-26T03:57:41.304Z,72.06
2018-03-26T03:58:52.124Z,71.82
2018-03-26T03:59:58.342Z,71.80
2018-03-26T04:01:04.657Z,71.58
2018-03-26T04:02:11.205Z,71.53
2018-03-26T04:03:18.040Z,71.42
2018-03-26T04:04:24.290Z,71.51
2018-03-26T04:05:30.579Z,71.50
2018-03-26T04:06:36.794Z,71.69
2018-03-26T04:07:43.117Z,71.56
2018-03-26T04:08:49.353Z,71.58
2018-03-26T04:10:00.738Z,71.75
2018-03-26T04:11:07.085Z,71.80
2018-03-26T04:12:19.042Z,71.74
2018-03-26T04:13:29.210Z,71.81
2018-03-26T04:14:35.461Z,71.48
2018-03-26T04:15:42.347Z,71.29
2018-03-26T04:16:55.220Z,71.64
2018-03-26T04:18:01.441Z,71.80
2018-03-26T04:19:07.730Z,71.81
2018-03-26T04:20:13.797Z,71.68
2018-03-26T04:21:20.153Z,71.46
2018-03-26T04:22:26.074Z,71.34
2018-03-26T04:23:32.358Z,71.37
2018-03-26T04:24:38.602Z,71.41
2018-03-26T04:25:44.862Z,71.26
2018-03-26T04:26:54.248Z,71.82
2018-03-26T04:28:00.478Z,71.99
2018-03-26T04:29:06.792Z,72.25
2018-03-26T04:30:13.017Z,72.15
2018-03-26T04:31:19.459Z,72.19
2018-03-26T04:32:31.679Z,72.24
2018-03-26T04:33:37.983Z,72.11
2018-03-26T04:34:44.171Z,72.27
2018-03-26T04:35:50.427Z,72.10
2018-03-26T04:36:56.680Z,72.01
2018-03-26T04:38:02.861Z,72.07
2018-03-26T04:39:08.395Z,72.30
2018-03-26T04:40:19.020Z,72.10
2018-03-26T04:41:25.267Z,71.99
2018-03-26T04:42:31.552Z,71.79
2018-03-26T04:43:37.720Z,71.78
2018-03-26T04:44:43.931Z,71.73
2018-03-26T04:45:50.218Z,71.85
2018-03-26T04:46:56.523Z,72.08
2018-03-26T04:48:02.782Z,72.18
2018-03-26T04:49:11.894Z,72.36
2018-03-26T04:50:19.230Z,72.60
2018-03-26T04:51:25.494Z,72.54
2018-03-26T04:52:36.902Z,72.54
2018-03-26T04:53:45.135Z,72.84
2018-03-26T04:54:56.313Z,72.89
2018-03-26T04:56:03.472Z,72.72
2018-03-26T04:57:09.861Z,72.74
2018-03-26T04:58:16.096Z,72.98
2018-03-26T04:59:22.385Z,72.75
2018-03-26T05:00:31.682Z,72.49
2018-03-26T05:01:38.019Z,72.58
2018-03-26T05:02:44.186Z,72.53
2018-03-26T05:03:50.408Z,72.78
2018-03-26T05:04:57.319Z,72.58
2018-03-26T05:06:04.114Z,72.62
2018-03-26T05:07:13.226Z,72.78
2018-03-26T05:08:19.393Z,72.74
2018-03-26T05:09:30.166Z,72.80
2018-03-26T05:10:38.004Z,72.94
2018-03-26T05:11:44.212Z,73.00
2018-03-26T05:12:51.277Z,73.07
2018-03-26T05:13:57.495Z,73.33
2018-03-26T05:15:03.718Z,73.31
2018-03-26T05:16:09.938Z,73.53
2018-03-26T05:17:16.044Z,73.63
2018-03-26T05:18:22.348Z,73.53
2018-03-26T05:19:28.519Z,73.42
2018-03-26T05:20:34.911Z,73.47
2018-03-26T05:21:41.192Z,73.49
2018-03-26T05:22:51.920Z,73.52
2018-03-26T05:23:59.150Z,73.54
2018-03-26T05:25:04.635Z,73.43
2018-03-26T05:26:10.866Z,73.39
2018-03-26T05:27:17.067Z,73.29
2018-03-26T05:28:26.146Z,73.47
2018-03-26T05:29:32.394Z,73.43
2018-03-26T05:30:38.594Z,73.48
2018-03-26T05:31:44.968Z,73.50
2018-03-26T05:32:51.274Z,73.48
2018-03-26T05:33:57.462Z,73.26
2018-03-26T05:35:08.413Z,73.22
2018-03-26T05:36:14.547Z,73.34
2018-03-26T05:37:24.197Z,73.41
2018-03-26T05:38:30.681Z,73.51
2018-03-26T05:39:36.884Z,73.78
2018-03-26T05:40:45.973Z,73.81
2018-03-26T05:41:51.958Z,73.93
2018-03-26T05:42:58.209Z,73.62
2018-03-26T05:44:04.385Z,73.62
2018-03-26T05:45:10.331Z,73.63
2018-03-26T05:46:16.607Z,73.59
2018-03-26T05:47:22.829Z,73.67
2018-03-26T05:48:31.116Z,73.63
2018-03-26T05:49:37.104Z,73.55
2018-03-26T05:50:48.509Z,73.21
2018-03-26T05:51:55.684Z,72.86
2018-03-26T05:53:02.075Z,72.93
2018-03-26T05:54:07.924Z,73.33
2018-03-26T05:55:14.108Z,73.45
2018-03-26T05:56:23.087Z,73.59
2018-03-26T05:57:29.301Z,73.68
2018-03-26T05:58:35.493Z,74.24
2018-03-26T05:59:41.745Z,74.11
2018-03-26T06:00:47.921Z,74.07
2018-03-26T06:01:54.103Z,74.05
2018-03-26T06:03:04.854Z,73.88
2018-03-26T06:04:11.031Z,73.61
2018-03-26T06:05:18.469Z,73.53
2018-03-26T06:06:24.745Z,73.62
2018-03-26T06:07:31.053Z,73.75
2018-03-26T06:08:37.745Z,73.38
2018-03-26T06:09:43.970Z,73.26
2018-03-26T06:10:50.185Z,73.19
2018-03-26T06:11:57.396Z,73.20
2018-03-26T06:13:15.302Z,73.48
2018-03-26T06:14:24.316Z,73.75
2018-03-26T06:15:30.727Z,74.32
2018-03-26T06:16:45.127Z,74.07
2018-03-26T06:17:50.885Z,73.93
2018-03-26T06:18:57.058Z,74.39
2018-03-26T06:20:04.572Z,74.28
2018-03-26T06:21:10.671Z,74.21
2018-03-26T06:22:16.777Z,74.03
2018-03-26T06:23:22.830Z,74.09
2018-03-26T06:24:33.964Z,74.15
2018-03-26T06:25:39.980Z,74.38
2018-03-26T06:26:46.024Z,74.36
2018-03-26T06:27:52.128Z,74.30
2018-03-26T06:28:58.140Z,74.37
2018-03-26T06:30:06.765Z,74.19
2018-03-26T06:31:12.783Z,73.90
2018-03-26T06:32:21.404Z,73.75
2018-03-26T06:33:29.055Z,73.83
2018-03-26T06:34:37.612Z,73.91
2018-03-26T06:35:43.661Z,74.03
2018-03-26T06:38:39.387Z,73.80
2018-03-26T06:39:45.560Z,74.01
2018-03-26T06:40:51.516Z,74.06
2018-03-26T06:41:57.685Z,73.75
2018-03-26T06:43:03.888Z,73.90
2018-03-26T06:44:11.741Z,73.72
2018-03-26T06:45:18.129Z,73.65
2018-03-26T06:46:27.218Z,73.72
2018-03-26T06:47:33.691Z,73.79
2018-03-26T06:48:40.980Z,73.73
2018-03-26T06:49:47.193Z,73.38
2018-03-26T06:50:53.617Z,72.97
2018-03-26T06:51:59.802Z,72.90
2018-03-26T06:53:06.089Z,72.91
2018-03-26T06:54:20.664Z,73.25
2018-03-26T06:55:35.110Z,73.25
2018-03-26T06:56:41.319Z,73.36
2018-03-26T06:57:47.518Z,73.38
2018-03-26T06:58:53.743Z,73.17
2018-03-26T06:59:59.980Z,73.08
2018-03-26T07:01:11.754Z,72.97
2018-03-26T07:02:17.982Z,72.95
2018-03-26T07:03:24.446Z,72.92
2018-03-26T07:04:30.773Z,72.97
2018-03-26T07:05:36.996Z,72.84
2018-03-26T07:06:43.229Z,72.87
2018-03-26T07:07:49.485Z,72.49
2018-03-26T07:08:55.707Z,72.36
2018-03-26T07:10:01.880Z,72.10
2018-03-26T07:11:08.101Z,72.31
2018-03-26T07:12:14.322Z,72.38
2018-03-26T07:13:21.857Z,72.45
2018-03-26T07:14:28.859Z,72.49
2018-03-26T07:15:39.979Z,72.36
2018-03-26T07:16:46.302Z,72.37
2018-03-26T07:17:52.500Z,72.18
2018-03-26T07:18:58.736Z,72.17
2018-03-26T07:20:04.731Z,72.13
2018-03-26T07:21:10.945Z,72.51
2018-03-26T07:22:17.159Z,72.38
2018-03-26T07:23:23.855Z,72.27
2018-03-26T07:24:30.029Z,72.47
2018-03-26T07:25:44.730Z,72.34
2018-03-26T07:26:50.931Z,72.26
2018-03-26T07:27:57.149Z,72.23
2018-03-26T07:29:09.252Z,72.28
2018-03-26T07:30:17.387Z,72.20
2018-03-26T07:31:23.514Z,72.29
2018-03-26T07:32:29.781Z,72.02
2018-03-26T07:33:35.940Z,71.76
2018-03-26T07:34:42.234Z,71.84
2018-03-26T07:35:48.392Z,72.08
2018-03-26T07:36:54.275Z,71.90
2018-03-26T07:38:00.872Z,71.78
2018-03-26T07:39:07.198Z,71.76
2018-03-26T07:40:13.404Z,71.78
2018-03-26T07:41:19.574Z,71.78
2018-03-26T07:42:25.834Z,71.78
2018-03-26T07:43:37.834Z,71.54
2018-03-26T07:44:45.204Z,71.49
2018-03-26T07:45:51.404Z,71.85
2018-03-26T07:46:57.631Z,72.06
2018-03-26T07:48:03.917Z,71.99
2018-03-26T07:49:15.097Z,71.88
2018-03-26T07:50:21.294Z,71.68
2018-03-26T07:51:27.471Z,71.50
2018-03-26T07:52:33.949Z,71.53
2018-03-26T07:53:40.151Z,71.67
2018-03-26T07:54:46.390Z,71.30
2018-03-26T07:55:52.558Z,71.42
2018-03-26T07:56:59.040Z,71.54
2018-03-26T07:58:09.249Z,71.60
2018-03-26T07:59:17.786Z,71.57
2018-03-26T08:00:24.073Z,71.81
2018-03-26T08:01:30.292Z,71.99
2018-03-26T08:02:36.505Z,71.97
2018-03-26T08:03:42.916Z,71.62
2018-03-26T08:04:49.125Z,71.71
2018-03-26T08:05:55.303Z,71.55
2018-03-26T08:07:01.516Z,71.43
2018-03-26T08:08:07.599Z,71.25
2018-03-26T08:09:14.797Z,71.25
2018-03-26T08:10:21.007Z,71.26
2018-03-26T08:11:27.027Z,71.46
2018-03-26T08:12:33.431Z,71.27
2018-03-26T08:13:40.642Z,71.26
2018-03-26T08:14:46.837Z,71.15
2018-03-26T08:15:53.042Z,71.29
2018-03-26T08:16:59.327Z,71.00
2018-03-26T08:18:05.222Z,70.89
2018-03-26T08:19:11.462Z,70.92
2018-03-26T08:20:18.009Z,70.96
2018-03-26T08:21:24.167Z,70.91
2018-03-26T08:22:30.386Z,70.83
2018-03-26T08:23:36.570Z,70.69
2018-03-26T08:24:47.866Z,70.88
2018-03-26T08:25:54.093Z,70.87
2018-03-26T08:27:00.368Z,71.07
2018-03-26T08:28:06.905Z,71.06
2018-03-26T08:29:13.191Z,71.03
2018-03-26T08:30:24.076Z,70.71
2018-03-26T08:31:30.300Z,70.58
2018-03-26T08:32:36.538Z,70.49
2018-03-26T08:33:42.703Z,70.60
2018-03-26T08:34:48.933Z,70.61
2018-03-26T08:35:55.085Z,70.89
2018-03-26T08:37:01.287Z,70.98
2018-03-26T08:38:07.492Z,70.92
2018-03-26T08:39:13.640Z,70.91
2018-03-26T08:40:25.930Z,71.11
2018-03-26T08:41:33.851Z,71.44
2018-03-26T08:42:40.004Z,71.33
2018-03-26T08:43:46.365Z,71.37
2018-03-26T08:44:52.559Z,71.52
2018-03-26T08:45:58.911Z,71.46
2018-03-26T08:47:06.105Z,71.46
2018-03-26T08:48:15.774Z,71.60
2018-03-26T08:49:21.974Z,71.41
2018-03-26T08:50:28.201Z,71.58
2018-03-26T08:51:39.566Z,71.68
2018-03-26T08:52:45.777Z,71.57
2018-03-26T08:53:54.821Z,71.50
2018-03-26T08:55:03.064Z,71.52
2018-03-26T08:56:09.263Z,71.95
2018-03-26T08:57:15.538Z,72.08
2018-03-26T08:58:21.758Z,71.99
2018-03-26T08:59:28.029Z,71.87
2018-03-26T09:00:36.965Z,72.14
2018-03-26T09:01:43.200Z,72.28
2018-03-26T09:02:56.564Z,72.41
2018-03-26T09:04:02.726Z,72.33
2018-03-26T09:05:14.936Z,72.31
2018-03-26T09:06:24.030Z,72.42
2018-03-26T09:07:33.163Z,72.56
2018-03-26T09:08:42.477Z,72.49
2018-03-26T09:09:48.653Z,72.23
2018-03-26T09:10:54.838Z,71.94
2018-03-26T09:12:00.810Z,71.96
2018-03-26T09:13:07.292Z,71.89
2018-03-26T09:14:18.544Z,72.09
2018-03-26T09:15:29.570Z,72.50
2018-03-26T09:16:36.047Z,72.34
2018-03-26T09:17:42.325Z,72.49
2018-03-26T09:18:51.706Z,72.68
2018-03-26T09:19:57.893Z,72.43
2018-03-26T09:21:04.658Z,72.36
2018-03-26T09:22:10.683Z,72.64
2018-03-26T09:23:17.893Z,72.56
2018-03-26T09:24:24.066Z,72.48
2018-03-26T09:25:30.409Z,72.44
2018-03-26T09:26:36.709Z,72.57
2018-03-26T09:27:42.932Z,72.64
2018-03-26T09:28:49.162Z,72.84
2018-03-26T09:29:55.399Z,72.92
2018-03-26T09:31:06.609Z,73.07
2018-03-26T09:32:12.857Z,73.04
2018-03-26T09:33:19.058Z,73.07
2018-03-26T09:34:30.938Z,73.25
2018-03-26T09:35:37.141Z,73.36
2018-03-26T09:36:43.319Z,73.30
2018-03-26T09:37:49.527Z,73.36
2018-03-26T09:38:55.697Z,73.35
2018-03-26T09:40:01.924Z,73.55
2018-03-26T09:41:07.759Z,73.67
2018-03-26T09:42:13.887Z,73.91
2018-03-26T09:43:26.133Z,74.02
2018-03-26T09:44:32.356Z,74.57
2018-03-26T09:45:38.589Z,74.43
2018-03-26T09:46:44.784Z,74.77
2018-03-26T09:47:51.977Z,74.83
2018-03-26T09:48:58.884Z,74.82
2018-03-26T09:50:04.688Z,74.82
2018-03-26T09:51:10.904Z,74.94
2018-03-26T09:52:22.350Z,75.08
2018-03-26T09:53:28.595Z,75.12
2018-03-26T09:54:34.806Z,75.11
2018-03-26T09:55:41.012Z,75.22
2018-03-26T09:56:47.238Z,75.38
2018-03-26T09:57:53.509Z,75.42
2018-03-26T09:58:59.747Z,75.58
2018-03-26T10:00:05.872Z,75.74
2018-03-26T10:01:18.031Z,75.91
2018-03-26T10:02:24.277Z,75.96
2018-03-26T10:03:30.499Z,76.04
2018-03-26T10:04:42.107Z,75.95
2018-03-26T10:05:50.394Z,76.33
2018-03-26T10:06:56.606Z,76.52
2018-03-26T10:08:03.208Z,76.53
2018-03-26T10:09:09.488Z,76.56
2018-03-26T10:10:15.735Z,76.92
2018-03-26T10:11:21.918Z,76.79
2018-03-26T10:12:28.142Z,76.98
2018-03-26T10:13:36.378Z,76.96
2018-03-26T10:14:42.532Z,76.92
2018-03-26T10:15:48.695Z,77.06
2018-03-26T10:16:54.851Z,77.01
2018-03-26T10:18:01.361Z,76.80
2018-03-26T10:19:07.576Z,76.72
2018-03-26T10:20:13.815Z,76.83
2018-03-26T10:21:22.939Z,76.63
2018-03-26T10:22:28.874Z,76.31
2018-03-26T10:23:35.367Z,76.53
2018-03-26T10:24:42.741Z,76.88
2018-03-26T10:25:53.591Z,76.70
2018-03-26T10:26:59.837Z,76.89
2018-03-26T10:28:05.693Z,76.80
2018-03-26T10:29:17.561Z,76.70
2018-03-26T10:30:27.764Z,76.58
2018-03-26T10:31:34.000Z,76.85
2018-03-26T10:32:40.241Z,76.93
2018-03-26T10:33:46.661Z,76.51
2018-03-26T10:34:52.801Z,76.65
2018-03-26T10:35:58.946Z,76.79
2018-03-26T10:37:04.803Z,76.87
2018-03-26T10:38:11.031Z,76.70
2018-03-26T10:39:17.242Z,76.38
2018-03-26T10:40:23.459Z,76.54
2018-03-26T10:41:36.277Z,76.56
2018-03-26T10:42:42.559Z,76.26
2018-03-26T10:43:50.712Z,76.22
2018-03-26T10:44:57.035Z,76.28
2018-03-26T10:46:02.948Z,76.25
2018-03-26T10:47:15.166Z,76.21
2018-03-26T10:48:21.481Z,76.16
2018-03-26T10:49:27.773Z,75.99
2018-03-26T10:50:34.133Z,75.75
2018-03-26T10:51:40.904Z,75.60
2018-03-26T10:52:47.226Z,75.77
2018-03-26T10:53:58.851Z,75.88
2018-03-26T10:55:04.951Z,75.91
2018-03-26T10:56:12.325Z,75.92
2018-03-26T10:57:18.839Z,76.27
2018-03-26T10:58:25.058Z,76.30
2018-03-26T10:59:32.439Z,76.22
2018-03-26T11:00:47.907Z,76.19
2018-03-26T11:01:54.195Z,76.03
2018-03-26T11:03:00.405Z,76.01
2018-03-26T11:04:06.614Z,75.90
2018-03-26T11:05:12.410Z,75.88
2018-03-26T11:06:18.700Z,75.75
2018-03-26T11:07:25.302Z,75.59
2018-03-26T11:08:31.520Z,75.20
2018-03-26T11:09:37.496Z,75.06
2018-03-26T11:10:46.516Z,74.94
2018-03-26T11:11:53.172Z,74.91
2018-03-26T11:12:59.437Z,74.72
2018-03-26T11:14:05.670Z,74.82
2018-03-26T11:15:11.853Z,74.65
2018-03-26T11:16:18.098Z,74.58
2018-03-26T11:17:24.455Z,74.56
2018-03-26T11:18:33.775Z,74.57
2018-03-26T11:19:40.035Z,74.67
2018-03-26T11:20:45.955Z,74.64
2018-03-26T11:21:52.202Z,74.72
2018-03-26T11:22:58.180Z,74.84
2018-03-26T11:24:04.252Z,74.80
2018-03-26T11:25:10.485Z,74.59
2018-03-26T11:26:16.787Z,74.53
2018-03-26T11:27:23.044Z,74.45
2018-03-26T11:28:29.343Z,74.52
2018-03-26T11:29:36.668Z,74.47
2018-03-26T11:30:42.951Z,74.61
2018-03-26T11:31:49.272Z,74.65
2018-03-26T11:32:55.494Z,74.86
2018-03-26T11:34:04.793Z,74.77
2018-03-26T11:35:11.060Z,74.59
2018-03-26T11:36:17.306Z,74.39
2018-03-26T11:37:28.547Z,74.63
2018-03-26T11:38:36.799Z,74.66
2018-03-26T11:39:43.060Z,74.71
2018-03-26T11:40:49.282Z,75.15
2018-03-26T11:41:55.569Z,75.31
2018-03-26T11:43:01.794Z,75.32
2018-03-26T11:44:08.020Z,75.24
2018-03-26T11:45:14.287Z,75.04
2018-03-26T11:46:20.787Z,75.00
2018-03-26T11:47:27.005Z,75.17
2018-03-26T11:48:40.648Z,74.87
2018-03-26T11:49:47.066Z,74.70
2018-03-26T11:50:53.276Z,74.69
2018-03-26T11:51:59.533Z,74.51
2018-03-26T11:53:05.418Z,74.34
2018-03-26T11:54:12.649Z,74.54
2018-03-26T11:55:18.981Z,74.58
2018-03-26T11:56:25.713Z,74.42
2018-03-26T11:57:32.002Z,74.22
2018-03-26T11:58:38.265Z,73.91
2018-03-26T11:59:44.511Z,74.10
2018-03-26T12:00:50.883Z,74.01
2018-03-26T12:01:56.759Z,73.82
2018-03-26T12:03:02.986Z,74.05
2018-03-26T12:04:09.270Z,74.12
2018-03-26T12:05:15.509Z,74.03
2018-03-26T12:06:22.194Z,73.53
2018-03-26T12:07:28.465Z,73.41
2018-03-26T12:08:34.710Z,73.34
2018-03-26T12:09:41.827Z,73.28
2018-03-26T12:10:48.072Z,72.86
2018-03-26T12:11:54.313Z,72.85
2018-03-26T12:13:00.548Z,73.01
2018-03-26T12:14:06.510Z,72.71
2018-03-26T12:15:12.776Z,72.99
2018-03-26T12:16:19.444Z,72.94
2018-03-26T12:17:28.421Z,72.92
2018-03-26T12:18:40.258Z,72.89
2018-03-26T12:20:01.002Z,72.92
2018-03-26T12:21:06.344Z,73.24
2018-03-26T12:22:11.997Z,73.55
2018-03-26T12:23:29.235Z,73.63
2018-03-26T12:24:46.339Z,73.62
2018-03-26T12:25:52.268Z,73.83
2018-03-26T12:26:58.708Z,73.92
2018-03-26T12:28:16.084Z,74.16
2018-03-26T12:29:36.048Z,74.48
2018-03-26T12:30:42.022Z,74.24
2018-03-26T12:31:55.214Z,74.12
2018-03-26T12:33:05.816Z,74.05
2018-03-26T12:34:23.801Z,74.20
2018-03-26T12:35:40.848Z,74.23
2018-03-26T12:36:46.794Z,74.49
2018-03-26T12:37:53.302Z,74.53
2018-03-26T12:38:59.597Z,74.34
2018-03-26T12:40:04.903Z,74.46
2018-03-26T12:41:10.897Z,73.97
2018-03-26T12:42:17.139Z,73.66
2018-03-26T12:43:23.372Z,73.58
2018-03-26T12:44:40.402Z,73.55
2018-03-26T12:47:28.978Z,74.72
2018-03-26T12:48:35.230Z,74.73
2018-03-26T12:49:41.501Z,74.29
2018-03-26T12:50:58.771Z,73.72
2018-03-26T12:52:21.103Z,72.86
2018-03-26T12:53:32.249Z,72.94
2018-03-26T12:54:43.743Z,72.94
2018-03-26T12:55:50.688Z,73.38
2018-03-26T12:58:52.038Z,73.62
2018-03-26T13:00:02.598Z,73.24
2018-03-26T13:01:22.800Z,73.07
2018-03-26T13:02:30.745Z,73.03
2018-03-26T13:03:37.540Z,73.42
2018-03-26T13:04:43.908Z,73.26
2018-03-26T13:05:50.856Z,72.67
2018-03-26T13:06:57.162Z,72.01
2018-03-26T13:08:03.750Z,71.69
2018-03-26T13:09:09.747Z,71.36
2018-03-26T13:10:24.707Z,70.91
2018-03-26T13:11:30.939Z,70.57
2018-03-26T13:12:37.419Z,70.42
2018-03-26T13:13:44.055Z,70.11
2018-03-26T13:14:51.164Z,70.02
2018-03-26T13:15:58.159Z,69.74
2018-03-26T13:17:04.373Z,69.69
2018-03-26T13:18:10.762Z,69.68
2018-03-26T13:19:17.087Z,69.76
2018-03-26T13:20:23.427Z,69.74
2018-03-26T13:21:29.692Z,69.49
2018-03-26T13:22:36.114Z,69.79
2018-03-26T13:23:42.123Z,70.33
2018-03-26T13:24:48.349Z,70.55
2018-03-26T13:26:00.715Z,70.64
2018-03-26T13:27:07.062Z,70.95
2018-03-26T13:28:16.635Z,71.21
2018-03-26T13:29:22.990Z,70.45
2018-03-26T13:30:29.291Z,70.55
2018-03-26T13:31:35.635Z,71.16
2018-03-26T13:32:42.055Z,71.84
2018-03-26T13:33:48.413Z,72.44
2018-03-26T13:34:54.871Z,72.55
2018-03-26T13:36:01.152Z,72.78
2018-03-26T13:37:07.799Z,72.23
2018-03-26T13:38:14.020Z,71.94
2018-03-26T13:39:20.292Z,72.10
2018-03-26T13:40:26.492Z,72.44
2018-03-26T13:41:37.807Z,73.04
2018-03-26T13:42:45.473Z,73.33
2018-03-26T13:43:52.102Z,73.87
2018-03-26T13:44:58.517Z,74.17
2018-03-26T13:46:04.445Z,74.86
2018-03-26T13:47:10.416Z,75.07
2018-03-26T13:48:16.715Z,75.80
2018-03-26T13:49:23.028Z,76.57
2018-03-26T13:50:29.297Z,77.32
2018-03-26T13:51:35.565Z,78.60
2018-03-26T13:52:46.028Z,78.88
2018-03-26T13:53:52.137Z,79.30
2018-03-26T13:55:03.391Z,80.28
2018-03-26T13:56:12.139Z,80.75
2018-03-26T13:57:18.812Z,80.99
2018-03-26T13:58:24.706Z,81.40
2018-03-26T13:59:30.963Z,82.24
2018-03-26T14:00:37.204Z,82.62
2018-03-26T14:01:48.304Z,82.55
2018-03-26T14:02:59.304Z,81.75
2018-03-26T14:04:05.182Z,80.90
2018-03-26T14:05:11.381Z,80.14
2018-03-26T14:06:20.556Z,80.17
2018-03-26T14:07:26.809Z,80.17
2018-03-26T14:08:47.158Z,81.94
2018-03-26T14:10:04.235Z,82.21
2018-03-26T14:11:21.255Z,81.95
2018-03-26T14:12:42.303Z,83.39
2018-03-26T14:13:59.534Z,82.38
2018-03-26T14:15:16.690Z,81.21
2018-03-26T14:16:39.999Z,80.64
2018-03-26T14:17:49.961Z,80.49
2018-03-26T14:18:56.178Z,80.42
2018-03-26T14:20:09.311Z,80.19
2018-03-26T14:21:19.685Z,79.90
2018-03-26T14:22:32.879Z,79.58
2018-03-26T14:23:40.042Z,78.91
2018-03-26T14:24:46.659Z,78.50
2018-03-26T14:25:53.982Z,78.20
2018-03-26T14:27:00.276Z,78.29
2018-03-26T14:28:06.274Z,78.43
2018-03-26T14:29:12.888Z,78.53
2018-03-26T14:30:21.100Z,78.90
2018-03-26T14:31:27.635Z,78.84
2018-03-26T14:32:37.100Z,79.22
2018-03-26T14:33:45.063Z,79.57